Hood River, Oregon
Current Conditions -  °F | °C
As of 10:39 PM on Thursday 18 Dec 2014 (Local Time) from K4S2 Reporting Station
Haze Haze  
Wind Chill:   Ceiling: 2400
Heat Index:   Visibility: 4mi
Dew Point:   Wind: 0mph
Humidity: 100%   Direction: NA
Pressure: 29.89"   Gusts: NA
Location:  45.71°N, 121.52°W
Report Text: K4S2 190639Z AUTO 00000KT 4SM BR OVC024 04/04 A2989 RMK AO2 SLP137 T00400040
Loading
Personal Weather Stations






























Interactive Weather Map New forecast layout! Learn more

10-Day Weather Forecast

Advertisements
Track Severe Weather on mobile